Rose Hill, Kansas
Current Conditions -  °F | °C
As of 7:58 PM on Friday 24 Oct 2014 (Local Time) from KIAB Reporting Station
Clear Clear  
Wind Chill: 69°   Ceiling: Unl
Heat Index: 69°   Visibility: 10mi
Dew Point: 63°   Wind: 6mph
Humidity: 79%   Direction: 170°S
Pressure: 30.02"   Gusts: NA
Location:  37.56°N, 97.14°W
Report Text: KIAB 250058Z AUTO 17005KT 10SM CLR 21/17 A3002 RMK AO2 SLP162 T02080170
Loading
Personal Weather Stations






























Interactive Weather Map
Tropical Storm Tracking
New forecast layout! Learn more

10-Day Weather Forecast

Advertisements
Track Severe Weather on mobile